createdAt,value
2023-04-18T00:15:09.440Z,0.568561872909699
2023-04-18T00:21:29.702Z,0.5953177257525084
2023-04-18T00:27:50.568Z,0.8963210702341137
2023-04-18T00:34:10.295Z,0.5886287625418061
2023-04-18T00:45:21.926Z,1.1438127090301002
2023-04-18T00:51:41.964Z,0.9565217391304348
2023-04-18T01:00:36.638Z,0.5886287625418061
2023-04-18T01:11:51.611Z,0.5150501672240803
2023-04-18T01:20:09.519Z,0.7023411371237458
2023-04-18T01:26:28.940Z,0.27424749163879597
2023-04-18T01:32:51.940Z,0.6889632107023411
2023-04-18T01:39:10.585Z,0.18729096989966554
2023-04-18T01:50:09.962Z,0.5484949832775919
2023-04-18T01:58:05.249Z,0.6622073578595318
2023-04-18T02:04:24.268Z,0.6020066889632107
2023-04-18T02:10:44.807Z,0.5217391304347826
2023-04-18T02:32:17.853Z,0.8561872909698997
2023-04-18T02:38:38.164Z,1.0735785953177257
2023-04-18T02:48:11.312Z,1.7391304347826086
2023-04-18T02:56:51.926Z,1.1973244147157192
2023-04-18T03:04:58.934Z,1.4214046822742474
2023-04-18T03:17:10.701Z,1.137123745819398
2023-04-18T03:23:29.915Z,0.8695652173913043
2023-04-18T03:34:13.272Z,1.140468227424749
2023-04-18T03:48:32.707Z,1.491638795986622
2023-04-18T03:55:02.954Z,1.7926421404682273
2023-04-18T04:04:22.039Z,1.939799331103679
2023-04-18T04:18:42.951Z,1.7157190635451505
2023-04-18T04:25:03.194Z,1.6521739130434783
2023-04-18T04:31:24.309Z,1.1103678929765886
2023-04-18T04:37:46.495Z,1.4214046822742474
2023-04-18T04:44:09.740Z,1.1505016722408026
2023-04-18T04:50:36.706Z,1.5719063545150502
2023-04-18T05:06:30.903Z,1.6354515050167224
2023-04-18T05:15:58.563Z,1.6722408026755853
2023-04-18T05:23:12.977Z,1.8762541806020068
2023-04-18T05:29:35.694Z,1.4214046822742474
2023-04-18T05:36:00.633Z,1.9163879598662208
2023-04-18T05:42:23.325Z,1.451505016722408
2023-04-18T05:48:45.035Z,1.8963210702341138
2023-04-18T05:55:07.195Z,1.5585284280936456
2023-04-18T06:12:22.786Z,1.1438127090301002
2023-04-18T06:18:48.050Z,2.0836120401337794
2023-04-18T06:25:32.518Z,1.8762541806020068
2023-04-18T06:31:58.842Z,1.334448160535117
2023-04-18T06:40:59.906Z,1.7157190635451505
2023-04-18T06:47:23.475Z,1.354515050167224
2023-04-18T06:55:12.021Z,1.859531772575251
2023-04-18T07:05:41.083Z,0.9632107023411371
2023-04-18T07:12:02.516Z,1.648829431438127
2023-04-18T07:19:01.977Z,0.4414715719063545
2023-04-18T07:28:09.582Z,0.8160535117056856
2023-04-18T07:37:36.155Z,0.9431438127090301
2023-04-18T07:43:57.556Z,1.0735785953177257
2023-04-18T07:50:18.845Z,1.2107023411371238
2023-04-18T07:56:41.658Z,0.6622073578595318
2023-04-18T08:03:04.017Z,0.6220735785953178
2023-04-18T08:09:25.388Z,0.7290969899665551
2023-04-18T08:15:47.129Z,0.5886287625418061
2023-04-18T08:25:05.736Z,0.9163879598662207
2023-04-18T08:33:14.261Z,1.0033444816053512
2023-04-18T08:39:35.567Z,0.47491638795986624
2023-04-18T08:45:56.999Z,1.0769230769230769
2023-04-18T08:52:16.912Z,1.0033444816053512
2023-04-18T08:58:37.169Z,0.5384615384615384
2023-04-18T09:04:58.001Z,0.9632107023411371
2023-04-18T09:11:18.529Z,1.0702341137123745
2023-04-18T09:17:38.764Z,0.5752508361204013
2023-04-18T09:23:59.275Z,0.3010033444816054
2023-04-18T09:30:19.964Z,0.35451505016722407
2023-04-18T09:36:40.115Z,0.4080267558528428
2023-04-18T09:48:22.478Z,0.2608695652173913
2023-04-18T09:54:43.358Z,0.43478260869565216
2023-04-18T10:01:04.233Z,0.08695652173913043
2023-04-18T10:13:43.695Z,0.23411371237458195
2023-04-18T10:20:04.585Z,0.6220735785953178
2023-04-18T10:26:24.181Z,0.17391304347826086
2023-04-18T10:32:44.233Z,0.22742474916387959
2023-04-18T10:42:39.642Z,0.2608695652173913
2023-04-18T10:48:59.659Z,0.45484949832775917
2023-04-18T10:55:19.018Z,0.2809364548494983
2023-04-18T11:01:38.932Z,0.6555183946488294
2023-04-18T11:07:59.163Z,0.8494983277591973
2023-04-18T11:18:48.437Z,0.28762541806020064
2023-04-18T11:28:50.221Z,0.28762541806020064
2023-04-18T11:35:10.224Z,0.9665551839464883
2023-04-18T11:41:30.099Z,0.568561872909699
2023-04-18T11:47:52.491Z,0.3076923076923077
2023-04-18T11:54:13.687Z,0.2842809364548495
2023-04-18T12:00:34.257Z,0.14046822742474915
2023-04-18T12:06:54.612Z,0.3411371237458194
2023-04-18T12:13:14.894Z,0.2608695652173913
2023-04-18T12:19:35.111Z,0.17391304347826086
2023-04-18T12:35:53.865Z,0.13377926421404682
2023-04-18T12:42:13.928Z,0.782608695652174
2023-04-18T12:48:33.396Z,0.3277591973244147
2023-04-18T12:54:54.758Z,0.45484949832775917
2023-04-18T13:01:15.088Z,0.2408026755852843
2023-04-18T13:07:35.407Z,0.1605351170568562
2023-04-18T13:13:55.914Z,0.07357859531772576
2023-04-18T13:20:15.673Z,0.46153846153846156
2023-04-18T13:26:35.758Z,0.2809364548494983
2023-04-18T13:34:54.056Z,0.36454849498327757
2023-04-18T13:41:13.959Z,0.34782608695652173
2023-04-18T13:47:33.702Z,0.2608695652173913
2023-04-18T13:53:53.936Z,0.2608695652173913
2023-04-18T14:00:13.907Z,0.4013377926421405
2023-04-18T14:08:12.941Z,0.17391304347826086
2023-04-18T14:14:33.993Z,0.2608695652173913
2023-04-18T14:20:55.080Z,0.1806020066889632
2023-04-18T14:27:15.896Z,0.5217391304347826
2023-04-18T14:34:38.900Z,0.08695652173913043
2023-04-18T14:44:47.665Z,0.4882943143812709
2023-04-18T14:51:10.162Z,0.44816053511705684
2023-04-18T14:57:34.008Z,0.3612040133779264
2023-04-18T15:09:36.433Z,0.3076923076923077
2023-04-18T15:15:58.034Z,0.24749163879598662
2023-04-18T15:30:51.457Z,0.1806020066889632
2023-04-18T15:37:15.053Z,0.06020066889632107
2023-04-18T15:43:37.491Z,0.6020066889632107
2023-04-18T15:49:59.855Z,0.47491638795986624
2023-04-18T15:56:22.073Z,0.5284280936454849
2023-04-18T16:02:45.282Z,0.3010033444816054
2023-04-18T16:09:08.573Z,0.5752508361204013
2023-04-18T16:15:31.973Z,0.3411371237458194
2023-04-18T16:21:55.177Z,0.3879598662207358
2023-04-18T16:29:22.430Z,0.17391304347826086
2023-04-18T16:35:45.024Z,0.4816053511705686
2023-04-18T16:42:07.485Z,0.3076923076923077
2023-04-18T16:48:29.172Z,0.6354515050167224
2023-04-18T16:54:52.576Z,0.5551839464882943
2023-04-18T17:01:14.640Z,0.44816053511705684
2023-04-18T17:07:36.779Z,0.5819397993311036
2023-04-18T17:14:15.193Z,0.34782608695652173
2023-04-18T17:24:44.706Z,0.7424749163879598
2023-04-18T17:33:35.822Z,0.782608695652174
2023-04-18T17:39:58.658Z,0.9297658862876255
2023-04-18T17:46:21.458Z,0.6287625418060201
2023-04-18T17:52:47.117Z,0.8093645484949833
2023-04-18T18:00:48.013Z,0.8294314381270903
2023-04-18T18:07:53.659Z,0.5953177257525084
2023-04-18T18:15:08.995Z,1.434782608695652
2023-04-18T18:30:29.826Z,1.0903010033444815
2023-04-18T18:36:56.754Z,0.568561872909699
2023-04-18T18:47:57.438Z,0.6688963210702341
2023-04-18T18:54:19.627Z,1.4749163879598661
2023-04-18T19:00:44.556Z,0.5752508361204013
2023-04-18T19:07:09.557Z,0.4682274247491639
2023-04-18T19:24:40.589Z,1.0468227424749164
2023-04-18T19:37:02.538Z,0.6354515050167224
2023-04-18T19:43:52.227Z,0.9063545150501672
2023-04-18T19:50:19.171Z,0.8561872909698997
2023-04-18T19:56:53.696Z,0.7792642140468228
2023-04-18T20:05:14.272Z,0.7491638795986622
2023-04-18T20:11:39.512Z,0.7090301003344481
2023-04-18T20:18:05.307Z,0.9565217391304348
2023-04-18T20:24:36.581Z,0.44816053511705684
2023-04-18T20:30:58.106Z,0.4816053511705686
2023-04-18T20:37:22.547Z,0.6454849498327759
2023-04-18T20:47:39.906Z,0.8963210702341137
2023-04-18T20:57:42.037Z,0.5752508361204013
2023-04-18T21:04:03.769Z,0.882943143812709
2023-04-18T21:14:05.343Z,0.5083612040133779
2023-04-18T21:23:29.129Z,0.9498327759197325
2023-04-18T21:29:49.663Z,0.7023411371237458
2023-04-18T21:37:35.592Z,0.8662207357859532
2023-04-18T21:48:04.747Z,0.7424749163879598
2023-04-18T21:54:24.830Z,0.9431438127090301
2023-04-18T22:00:45.008Z,1.2642140468227425
2023-04-18T22:07:05.515Z,0.4214046822742475
2023-04-18T22:16:07.844Z,0.3076923076923077
2023-04-18T22:22:28.410Z,0.6020066889632107
2023-04-18T22:34:18.237Z,0.9063545150501672
2023-04-18T22:40:37.978Z,0.3010033444816054
2023-04-18T22:46:57.704Z,0.7224080267558528
2023-04-18T22:57:29.399Z,0.5418060200668896
2023-04-18T23:03:49.470Z,0.31438127090301005
2023-04-18T23:11:00.665Z,0.33444816053511706
2023-04-18T23:17:21.045Z,0.7424749163879598
2023-04-18T23:23:41.327Z,1.0903010033444815
2023-04-18T23:30:02.699Z,0.8862876254180602
2023-04-18T23:36:40.985Z,0.782608695652174
2023-04-18T23:43:00.318Z,0.6688963210702341
2023-04-18T23:54:54.892Z,0.919732441471572
